Time;durP1;ratioP1;P1;durP2;ratioP2;P2;SDS_P1;SDS_P2;PMS_P1;PMS_P2;Temp;Humidity;BMP_temperature;BMP_pressure;BME280_temperature;BME280_humidity;BME280_pressure;Samples;Min_cycle;Max_cycle;Signal;HPM_P1;HPM_P2
2023/05/24 00:01:25;;;;;;;6.70;5.53;;;12.70;99.90;;;;;;5073818;28;20223;-78
2023/05/24 00:03:57;;;;;;;6.20;5.30;;;12.70;99.90;;;;;;5073402;28;20578;-75
2023/05/24 00:06:26;;;;;;;5.60;5.00;;;12.60;99.90;;;;;;5074212;28;20192;-76
2023/05/24 00:08:54;;;;;;;5.67;4.60;;;12.60;99.90;;;;;;5073312;28;20657;-79
2023/05/24 00:11:23;;;;;;;5.03;4.53;;;12.70;99.90;;;;;;5073752;28;20525;-77
2023/05/24 00:13:51;;;;;;;5.70;4.77;;;12.70;99.90;;;;;;5073276;28;20228;-79
2023/05/24 00:16:19;;;;;;;6.53;4.73;;;12.70;99.90;;;;;;5073035;28;20258;-76
2023/05/24 00:18:48;;;;;;;6.03;5.07;;;12.70;99.90;;;;;;5093569;28;20242;-76
2023/05/24 00:21:16;;;;;;;5.40;4.90;;;12.70;99.90;;;;;;5093576;28;20263;-77
2023/05/24 00:23:44;;;;;;;5.23;4.27;;;12.70;99.90;;;;;;5092987;28;20207;-76
2023/05/24 00:26:13;;;;;;;5.33;4.50;;;12.70;99.90;;;;;;5082865;28;20600;-78
2023/05/24 00:28:41;;;;;;;5.10;4.50;;;12.70;99.90;;;;;;5072833;28;20211;-77
2023/05/24 00:31:09;;;;;;;4.70;4.10;;;12.70;99.90;;;;;;5073000;28;20235;-78
2023/05/24 00:33:37;;;;;;;4.60;4.03;;;12.70;99.90;;;;;;5072372;28;20243;-77
2023/05/24 00:36:06;;;;;;;5.10;4.60;;;12.70;99.90;;;;;;5072695;28;20269;-78
2023/05/24 00:38:34;;;;;;;6.07;4.77;;;12.70;99.90;;;;;;5072987;28;20235;-78
2023/05/24 00:41:03;;;;;;;5.00;4.03;;;12.70;99.90;;;;;;5072918;28;20237;-79
2023/05/24 00:43:31;;;;;;;4.80;4.30;;;12.70;99.90;;;;;;5072691;28;20208;-76
2023/05/24 00:46:19;;;;;;;6.67;4.50;;;12.70;99.90;;;;;;5072771;28;20597;-77
2023/05/24 00:48:48;;;;;;;4.73;4.20;;;12.70;99.90;;;;;;5083575;28;20207;-75
2023/05/24 00:51:18;;;;;;;5.47;4.70;;;12.70;99.90;;;;;;5092909;28;20620;-78
2023/05/24 00:53:47;;;;;;;6.03;4.60;;;12.70;99.90;;;;;;5092312;28;20256;-78
2023/05/24 00:56:16;;;;;;;5.17;4.43;;;12.70;99.90;;;;;;5083577;28;20235;-77
2023/05/24 00:58:45;;;;;;;5.23;4.30;;;12.70;99.90;;;;;;5072572;28;20245;-78
2023/05/24 01:01:13;;;;;;;5.13;4.53;;;12.70;99.90;;;;;;5072360;28;20305;-77
2023/05/24 01:03:42;;;;;;;5.90;5.00;;;12.70;99.90;;;;;;5072084;28;20556;-78
2023/05/24 01:06:10;;;;;;;6.67;4.87;;;12.70;99.90;;;;;;5072649;28;20222;-77
2023/05/24 01:09:05;;;;;;;7.63;5.23;;;12.70;99.90;;;;;;5072496;28;20211;-75
2023/05/24 01:11:43;;;;;;;5.90;4.90;;;12.60;99.90;;;;;;5072288;28;20211;-77
2023/05/24 01:14:20;;;;;;;6.30;5.10;;;12.60;99.90;;;;;;5071616;28;20218;-79
2023/05/24 01:16:55;;;;;;;8.10;5.40;;;12.60;99.90;;;;;;5072260;28;20195;-78
2023/05/24 01:19:49;;;;;;;7.00;5.00;;;12.60;99.90;;;;;;5071627;28;20284;-77
2023/05/24 01:22:28;;;;;;;5.33;4.57;;;12.60;99.90;;;;;;5071241;28;20548;-77
2023/05/24 01:25:04;;;;;;;5.73;4.93;;;12.60;99.90;;;;;;5092406;28;20309;-77
2023/05/24 01:27:36;;;;;;;5.00;4.50;;;12.60;99.90;;;;;;5092857;28;20619;-76
2023/05/24 01:30:05;;;;;;;5.10;4.30;;;12.60;99.90;;;;;;5092410;28;20213;-76
2023/05/24 01:32:33;;;;;;;6.00;4.33;;;12.60;99.90;;;;;;5080178;28;20215;-78
2023/05/24 01:35:01;;;;;;;5.33;4.67;;;12.60;99.90;;;;;;5088944;28;20290;-76
2023/05/24 01:37:29;;;;;;;4.90;4.40;;;12.60;99.90;;;;;;5091895;28;20215;-78
2023/05/24 01:39:59;;;;;;;5.07;4.37;;;12.60;99.90;;;;;;5092254;28;20206;-76
2023/05/24 01:42:36;;;;;;;6.00;4.73;;;12.50;99.90;;;;;;5072660;28;20258;-78
2023/05/24 01:45:13;;;;;;;6.60;5.07;;;12.60;99.90;;;;;;5072017;28;20192;-78
2023/05/24 01:47:52;;;;;;;5.37;4.80;;;12.50;99.90;;;;;;5071979;28;20377;-76
2023/05/24 01:50:26;;;;;;;6.10;4.83;;;12.50;99.90;;;;;;5071829;28;20207;-78
2023/05/24 01:52:58;;;;;;;5.87;5.13;;;12.50;99.90;;;;;;5089843;28;20211;-79
2023/05/24 01:55:28;;;;;;;6.57;5.40;;;12.50;99.90;;;;;;5092045;28;20207;-76
2023/05/24 01:58:01;;;;;;;5.50;4.83;;;12.40;99.90;;;;;;5088703;28;20332;-78
2023/05/24 02:00:32;;;;;;;5.80;5.20;;;12.40;99.90;;;;;;5071890;28;20210;-77
2023/05/24 02:03:02;;;;;;;5.63;4.93;;;12.50;99.90;;;;;;5071043;28;20227;-79
2023/05/24 02:05:32;;;;;;;5.30;4.80;;;12.50;99.90;;;;;;5072330;28;20206;-75
2023/05/24 02:08:00;;;;;;;5.23;4.70;;;12.50;99.90;;;;;;5091453;28;20191;-78
2023/05/24 02:10:29;;;;;;;5.57;5.07;;;12.50;99.90;;;;;;5091389;28;20280;-77
2023/05/24 02:12:58;;;;;;;8.33;5.40;;;12.40;99.90;;;;;;5090966;28;20199;-75
2023/05/24 02:15:29;;;;;;;5.87;5.10;;;12.40;99.90;;;;;;5084787;28;20203;-77
2023/05/24 02:17:57;;;;;;;7.20;5.67;;;12.40;99.90;;;;;;5071604;28;20294;-76
2023/05/24 02:20:27;;;;;;;7.10;5.80;;;12.40;99.90;;;;;;5071717;28;20215;-78
2023/05/24 02:22:55;;;;;;;6.30;5.70;;;12.40;99.90;;;;;;5071358;28;20314;-75
2023/05/24 02:25:23;;;;;;;6.00;5.40;;;12.40;99.90;;;;;;5071593;28;20212;-77
2023/05/24 02:27:51;;;;;;;6.57;5.60;;;12.40;99.90;;;;;;5071419;28;20207;-77
2023/05/24 02:30:21;;;;;;;6.80;6.10;;;12.40;99.90;;;;;;5071739;28;20216;-76
2023/05/24 02:32:49;;;;;;;7.60;5.77;;;12.40;99.90;;;;;;5074864;28;20212;-80
2023/05/24 02:35:17;;;;;;;7.80;6.53;;;12.40;99.90;;;;;;5075187;28;20212;-78
2023/05/24 02:37:45;;;;;;;8.00;6.30;;;12.40;99.90;;;;;;5095324;28;20238;-77
2023/05/24 02:40:14;;;;;;;7.83;6.10;;;12.30;99.90;;;;;;5095802;28;20603;-76
2023/05/24 02:42:42;;;;;;;6.70;5.80;;;12.40;99.90;;;;;;5095308;28;20222;-78
2023/05/24 02:45:10;;;;;;;7.53;6.40;;;12.40;99.90;;;;;;5093732;28;20283;-74
2023/05/24 02:47:40;;;;;;;7.20;6.27;;;12.40;99.90;;;;;;5075111;28;20223;-77
2023/05/24 02:50:09;;;;;;;6.87;5.63;;;12.40;99.90;;;;;;5082140;28;20203;-75
2023/05/24 02:52:37;;;;;;;6.57;5.90;;;12.40;99.90;;;;;;5095174;28;20206;-76
2023/05/24 02:55:07;;;;;;;7.87;5.97;;;12.40;99.90;;;;;;5088753;28;20685;-78
2023/05/24 02:57:36;;;;;;;7.17;5.77;;;12.30;99.90;;;;;;5074627;28;20211;-77
2023/05/24 03:00:07;;;;;;;9.60;6.57;;;12.30;99.90;;;;;;5076306;28;20207;-76
2023/05/24 03:02:37;;;;;;;7.17;6.27;;;12.30;99.90;;;;;;5075510;28;20211;-78
2023/05/24 03:05:08;;;;;;;7.20;6.07;;;12.30;99.90;;;;;;5092661;28;20312;-77
2023/05/24 03:07:36;;;;;;;7.23;6.30;;;12.30;99.90;;;;;;5094456;28;20252;-78
2023/05/24 03:10:05;;;;;;;6.90;6.20;;;12.30;99.90;;;;;;5094265;28;20199;-79
2023/05/24 03:12:34;;;;;;;8.50;6.73;;;12.20;99.90;;;;;;5093125;28;20199;-75
2023/05/24 03:15:02;;;;;;;7.83;7.03;;;12.20;99.90;;;;;;5093846;28;20696;-76
2023/05/24 03:17:30;;;;;;;7.97;6.93;;;12.10;99.90;;;;;;5093732;28;20203;-76
2023/05/24 03:19:58;;;;;;;7.83;7.03;;;12.10;99.90;;;;;;5090914;28;20206;-75
2023/05/24 03:22:28;;;;;;;7.70;6.70;;;12.10;99.90;;;;;;5090016;28;20207;-75
2023/05/24 03:24:57;;;;;;;7.60;6.80;;;12.10;99.90;;;;;;5094225;28;20202;-76
2023/05/24 03:27:25;;;;;;;8.00;7.13;;;12.10;99.90;;;;;;5091633;28;20217;-76
2023/05/24 03:29:53;;;;;;;7.17;6.47;;;12.00;99.90;;;;;;5094514;28;20599;-78
2023/05/24 03:32:21;;;;;;;8.40;6.97;;;12.00;99.90;;;;;;5092617;28;20207;-76
2023/05/24 03:34:49;;;;;;;7.77;6.93;;;12.00;99.90;;;;;;5094189;28;20353;-77
2023/05/24 03:37:17;;;;;;;7.30;6.37;;;11.90;99.90;;;;;;5093749;28;20256;-76
2023/05/24 03:39:47;;;;;;;8.00;7.20;;;11.90;99.90;;;;;;5091358;28;20306;-75
2023/05/24 03:42:15;;;;;;;7.63;6.83;;;11.90;99.90;;;;;;5091274;28;20207;-78
2023/05/24 03:44:43;;;;;;;7.43;6.70;;;11.90;99.90;;;;;;5093991;28;20296;-76
2023/05/24 03:47:11;;;;;;;7.57;6.77;;;11.80;99.90;;;;;;5094305;28;20234;-76
2023/05/24 03:49:39;;;;;;;7.93;6.40;;;11.70;99.90;;;;;;5093982;28;20363;-75
2023/05/24 03:52:08;;;;;;;8.53;6.57;;;11.80;99.90;;;;;;5091097;28;20203;-75
2023/05/24 03:54:36;;;;;;;8.50;7.00;;;11.70;99.90;;;;;;5094190;28;20282;-77
2023/05/24 03:57:06;;;;;;;7.10;6.33;;;11.60;99.90;;;;;;5093653;28;20211;-78
2023/05/24 03:59:35;;;;;;;8.57;6.33;;;11.60;99.90;;;;;;5091657;28;20202;-78
2023/05/24 04:02:03;;;;;;;7.43;6.20;;;11.60;99.90;;;;;;5093332;28;20199;-79
2023/05/24 04:04:31;;;;;;;8.23;6.60;;;11.60;99.90;;;;;;5093301;28;20625;-77
2023/05/24 04:06:59;;;;;;;7.93;6.87;;;11.60;99.90;;;;;;5093278;28;20201;-78
2023/05/24 04:09:27;;;;;;;7.27;6.57;;;11.50;99.90;;;;;;5089797;28;20661;-76
2023/05/24 04:11:55;;;;;;;9.40;6.80;;;11.50;99.90;;;;;;5092759;28;20245;-78
2023/05/24 04:14:25;;;;;;;8.10;6.87;;;11.60;99.90;;;;;;5093222;28;20249;-77
2023/05/24 04:16:53;;;;;;;9.37;6.70;;;11.60;99.90;;;;;;5093280;28;20631;-77
2023/05/24 04:19:22;;;;;;;7.77;6.97;;;11.60;99.90;;;;;;5092055;28;20207;-76
2023/05/24 04:21:50;;;;;;;6.93;6.00;;;11.60;99.90;;;;;;5092718;28;20207;-79
2023/05/24 04:24:18;;;;;;;7.70;6.70;;;11.50;99.90;;;;;;5092682;28;20210;-78
2023/05/24 04:26:47;;;;;;;7.77;6.20;;;11.50;99.90;;;;;;5088481;28;20203;-77
2023/05/24 04:29:15;;;;;;;8.53;7.07;;;11.50;99.90;;;;;;5092870;28;20199;-76
2023/05/24 04:31:44;;;;;;;7.47;6.60;;;11.50;99.90;;;;;;5092941;28;20230;-77
2023/05/24 04:34:13;;;;;;;8.30;6.70;;;11.50;99.90;;;;;;5090902;28;20231;-78
2023/05/24 04:36:41;;;;;;;8.47;6.97;;;11.50;99.90;;;;;;5092965;28;20268;-77
2023/05/24 04:39:10;;;;;;;8.87;7.07;;;11.50;99.90;;;;;;5093215;28;20219;-77
2023/05/24 04:41:38;;;;;;;8.13;6.70;;;11.50;99.90;;;;;;5093428;28;20207;-76
2023/05/24 04:44:06;;;;;;;10.37;6.40;;;11.50;99.90;;;;;;5075543;28;20259;-78
2023/05/24 04:46:35;;;;;;;7.87;6.40;;;11.50;99.90;;;;;;5073544;28;20621;-78
2023/05/24 04:49:07;;;;;;;8.33;6.30;;;11.60;99.90;;;;;;5092682;28;20207;-77
2023/05/24 04:51:37;;;;;;;8.63;6.83;;;11.60;99.90;;;;;;5072848;28;20303;-79
2023/05/24 04:54:07;;;;;;;8.03;6.83;;;11.60;99.90;;;;;;5072352;28;20203;-77
2023/05/24 04:56:37;;;;;;;8.67;6.57;;;11.60;99.90;;;;;;5072479;28;20211;-78
2023/05/24 04:59:05;;;;;;;7.90;6.40;;;11.50;99.90;;;;;;5089606;28;20207;-78
2023/05/24 05:01:34;;;;;;;8.07;6.23;;;11.60;99.90;;;;;;5092910;28;20203;-78
2023/05/24 05:04:04;;;;;;;7.93;6.40;;;11.60;99.90;;;;;;5075380;28;20318;-76
2023/05/24 05:06:37;;;;;;;7.03;6.00;;;11.70;99.90;;;;;;5072386;28;20204;-75
2023/05/24 05:09:08;;;;;;;7.83;6.40;;;11.80;99.90;;;;;;5084298;28;20242;-77
2023/05/24 05:11:36;;;;;;;8.23;5.70;;;11.80;99.90;;;;;;5092803;28;20261;-77
2023/05/24 05:14:05;;;;;;;6.73;6.00;;;11.80;99.90;;;;;;5073661;28;20220;-76
2023/05/24 05:16:33;;;;;;;7.07;5.73;;;11.90;99.90;;;;;;5072583;28;20295;-76
2023/05/24 05:19:03;;;;;;;6.67;5.83;;;12.00;99.90;;;;;;5072452;28;20211;-76
2023/05/24 05:21:33;;;;;;;7.77;5.47;;;11.90;99.90;;;;;;5072064;28;20231;-78
2023/05/24 05:24:02;;;;;;;6.73;5.77;;;11.90;99.90;;;;;;5071805;28;20233;-78
2023/05/24 05:26:31;;;;;;;7.00;5.50;;;12.00;99.90;;;;;;5072011;28;20207;-77
2023/05/24 05:28:59;;;;;;;7.20;5.67;;;12.10;99.90;;;;;;5071773;28;20694;-77
2023/05/24 05:31:27;;;;;;;9.70;5.93;;;12.20;99.90;;;;;;5072208;28;20261;-76
2023/05/24 05:33:56;;;;;;;8.23;5.80;;;12.20;99.90;;;;;;5071818;28;20298;-77
2023/05/24 05:36:24;;;;;;;9.53;5.83;;;12.30;99.90;;;;;;5072083;28;20268;-77
2023/05/24 05:38:53;;;;;;;8.70;5.60;;;12.30;99.90;;;;;;5072130;28;20211;-78
2023/05/24 05:41:21;;;;;;;8.00;6.37;;;12.30;99.90;;;;;;5072249;28;20284;-79
2023/05/24 05:43:50;;;;;;;7.70;5.97;;;12.50;99.90;;;;;;5071774;28;20227;-76
2023/05/24 05:46:20;;;;;;;6.77;5.23;;;12.70;99.90;;;;;;5074677;28;20204;-77
2023/05/24 05:48:48;;;;;;;5.70;4.97;;;13.10;99.90;;;;;;5071703;28;20195;-77
2023/05/24 05:51:16;;;;;;;10.43;4.70;;;13.40;99.90;;;;;;5071777;28;20261;-76
2023/05/24 05:53:44;;;;;;;5.67;5.07;;;13.70;99.90;;;;;;5071603;28;20256;-77
2023/05/24 05:56:14;;;;;;;7.03;4.77;;;13.80;99.90;;;;;;5072335;28;20229;-78
2023/05/24 05:58:42;;;;;;;6.63;5.30;;;13.60;99.90;;;;;;5071732;28;20469;-77
2023/05/24 06:01:10;;;;;;;7.50;4.60;;;13.60;99.90;;;;;;5072148;28;20229;-78
2023/05/24 06:03:38;;;;;;;6.73;4.73;;;13.90;99.90;;;;;;5071966;28;20211;-78
2023/05/24 06:06:07;;;;;;;5.97;5.17;;;14.00;99.90;;;;;;5073770;28;20211;-77
2023/05/24 06:08:35;;;;;;;6.97;4.90;;;13.90;99.90;;;;;;5085731;28;20230;-77
2023/05/24 06:11:03;;;;;;;6.50;4.50;;;13.80;99.90;;;;;;5096131;28;20271;-77
2023/05/24 06:13:33;;;;;;;5.23;4.60;;;13.90;99.90;;;;;;5095683;28;20865;-77
2023/05/24 06:16:01;;;;;;;8.13;4.97;;;14.10;99.90;;;;;;5096025;28;20206;-78
2023/05/24 06:18:31;;;;;;;5.30;4.73;;;13.90;99.90;;;;;;5082324;28;20306;-76
2023/05/24 06:21:00;;;;;;;5.43;4.67;;;14.20;99.90;;;;;;5075497;28;20260;-77
2023/05/24 06:23:28;;;;;;;6.13;4.93;;;14.50;99.90;;;;;;5075257;28;20212;-78
2023/05/24 06:25:56;;;;;;;5.80;4.30;;;15.00;99.90;;;;;;5075614;28;20231;-78
2023/05/24 06:28:24;;;;;;;5.20;3.80;;;15.10;99.90;;;;;;5075353;28;20253;-77
2023/05/24 06:30:53;;;;;;;5.27;4.03;;;15.50;99.90;;;;;;5075631;28;20661;-77
2023/05/24 06:33:22;;;;;;;5.00;4.13;;;15.70;99.90;;;;;;5075145;28;20205;-77
2023/05/24 06:35:50;;;;;;;8.07;4.30;;;16.10;99.90;;;;;;5075487;28;20273;-77
2023/05/24 06:38:18;;;;;;;5.67;4.20;;;16.00;99.90;;;;;;5075687;28;20233;-77
2023/05/24 06:40:46;;;;;;;4.53;4.13;;;15.40;99.90;;;;;;5075339;28;20204;-76
2023/05/24 06:43:15;;;;;;;4.80;3.93;;;15.60;99.90;;;;;;5081198;28;20234;-77
2023/05/24 06:45:43;;;;;;;6.50;4.17;;;15.60;99.90;;;;;;5095393;28;20276;-77
2023/05/24 06:48:12;;;;;;;5.50;4.37;;;15.70;99.90;;;;;;5088306;28;20204;-77
2023/05/24 06:50:41;;;;;;;4.73;3.90;;;15.90;99.90;;;;;;5075553;28;20273;-78
2023/05/24 06:53:10;;;;;;;11.13;4.77;;;17.30;99.90;;;;;;5075271;28;20310;-75
2023/05/24 06:55:38;;;;;;;7.57;4.73;;;17.70;99.90;;;;;;5076684;28;20239;-79
2023/05/24 06:58:06;;;;;;;5.30;4.03;;;17.90;99.90;;;;;;5081838;28;20233;-75
2023/05/24 07:00:35;;;;;;;4.90;3.97;;;18.30;99.90;;;;;;5095479;28;20229;-78
2023/05/24 07:03:03;;;;;;;5.23;4.07;;;17.60;99.90;;;;;;5094746;28;20202;-75
2023/05/24 07:05:33;;;;;;;5.20;3.93;;;17.10;99.90;;;;;;5076354;28;20255;-78
2023/05/24 07:08:01;;;;;;;6.27;4.20;;;16.10;99.90;;;;;;5072957;28;20207;-76
2023/05/24 07:10:30;;;;;;;6.13;4.73;;;16.00;99.90;;;;;;5073491;28;20211;-75
2023/05/24 07:12:58;;;;;;;5.40;4.27;;;15.40;99.90;;;;;;5072401;28;20598;-78
2023/05/24 07:15:26;;;;;;;5.57;4.30;;;15.30;99.90;;;;;;5072916;28;20281;-76
2023/05/24 07:17:54;;;;;;;5.30;4.47;;;15.70;99.90;;;;;;5071535;28;20211;-76
2023/05/24 07:20:23;;;;;;;5.70;4.57;;;15.40;99.90;;;;;;5072354;28;20684;-76
2023/05/24 07:22:53;;;;;;;6.10;4.13;;;15.30;99.90;;;;;;5074772;28;20211;-75
2023/05/24 07:25:21;;;;;;;6.73;4.20;;;15.50;99.90;;;;;;5075440;28;20223;-78
2023/05/24 07:27:50;;;;;;;5.97;3.70;;;16.10;99.90;;;;;;5075420;28;20211;-77
2023/05/24 07:30:18;;;;;;;5.70;3.50;;;16.20;99.90;;;;;;5076124;28;20269;-76
2023/05/24 07:32:59;;;;;;;4.93;3.33;;;16.20;99.90;;;;;;5074633;28;20638;-79
2023/05/24 07:35:29;;;;;;;4.00;3.60;;;16.60;99.90;;;;;;5075879;28;20204;-76
2023/05/24 07:37:59;;;;;;;4.67;3.57;;;16.30;99.90;;;;;;5075307;28;20211;-76
2023/05/24 07:40:27;;;;;;;4.10;3.53;;;16.40;99.90;;;;;;5074583;28;20665;-77
2023/05/24 07:42:55;;;;;;;5.40;4.10;;;16.30;99.90;;;;;;5079710;28;20203;-78
2023/05/24 07:45:24;;;;;;;4.80;4.00;;;15.80;99.90;;;;;;5095413;28;20272;-79
2023/05/24 07:47:52;;;;;;;5.93;4.13;;;15.70;99.90;;;;;;5078836;28;20662;-78
2023/05/24 07:50:23;;;;;;;5.27;4.10;;;15.90;99.90;;;;;;5074495;28;20662;-78
2023/05/24 07:52:52;;;;;;;6.00;4.40;;;16.00;99.90;;;;;;5073604;28;20208;-78
2023/05/24 07:55:21;;;;;;;5.80;4.30;;;16.00;99.90;;;;;;5073834;28;20653;-77
2023/05/24 07:57:49;;;;;;;6.20;4.17;;;16.00;99.90;;;;;;5074139;28;20212;-78
2023/05/24 08:00:19;;;;;;;6.87;3.90;;;16.10;99.90;;;;;;5073990;28;20207;-78
2023/05/24 08:02:47;;;;;;;4.87;4.30;;;16.60;99.90;;;;;;5073751;28;20680;-78
2023/05/24 08:05:17;;;;;;;7.47;4.50;;;16.60;99.90;;;;;;5073462;28;20219;-77
2023/05/24 08:07:45;;;;;;;6.07;4.07;;;16.60;99.90;;;;;;5073964;28;20207;-76
2023/05/24 08:10:13;;;;;;;5.57;4.37;;;16.80;99.90;;;;;;5072751;28;20471;-75
2023/05/24 08:12:43;;;;;;;6.60;4.60;;;16.70;99.90;;;;;;5072841;28;20695;-76
2023/05/24 08:15:11;;;;;;;5.87;4.40;;;16.60;99.90;;;;;;5073495;28;20269;-77
2023/05/24 08:17:40;;;;;;;8.57;4.90;;;16.40;99.90;;;;;;5073545;28;20997;-76
2023/05/24 08:20:12;;;;;;;7.43;5.00;;;16.20;99.90;;;;;;5073566;28;20204;-76
2023/05/24 08:22:41;;;;;;;6.17;4.37;;;16.30;99.90;;;;;;5072958;28;20207;-77
2023/05/24 08:25:10;;;;;;;5.23;3.83;;;16.60;99.90;;;;;;5073533;28;20211;-78
2023/05/24 08:27:38;;;;;;;6.53;3.80;;;16.60;99.90;;;;;;5073435;28;20211;-76
2023/05/24 08:30:09;;;;;;;5.10;3.70;;;16.80;99.90;;;;;;5073198;28;20207;-77
2023/05/24 08:32:38;;;;;;;6.07;3.90;;;16.90;99.90;;;;;;5072806;28;20207;-78
2023/05/24 08:35:07;;;;;;;5.50;3.77;;;16.60;99.90;;;;;;5073317;28;20673;-76
2023/05/24 08:37:48;;;;;;;5.73;4.60;;;16.70;99.90;;;;;;5073745;28;20298;-75
2023/05/24 08:40:17;;;;;;;7.43;4.23;;;16.50;99.90;;;;;;5073516;28;20261;-78
2023/05/24 08:42:46;;;;;;;5.97;4.30;;;16.40;99.90;;;;;;5087210;28;20255;-77
2023/05/24 08:45:17;;;;;;;7.37;4.83;;;16.50;99.90;;;;;;5093618;28;20210;-77
2023/05/24 08:47:46;;;;;;;7.27;4.30;;;16.40;99.90;;;;;;5093453;28;20250;-77
2023/05/24 08:50:15;;;;;;;6.47;5.10;;;16.70;99.90;;;;;;5093214;28;20305;-77
2023/05/24 08:52:45;;;;;;;7.27;4.70;;;16.60;99.90;;;;;;5076106;28;20260;-77
2023/05/24 08:55:14;;;;;;;7.93;4.70;;;16.50;99.90;;;;;;5073229;28;20199;-76
2023/05/24 08:57:45;;;;;;;7.67;5.03;;;16.70;99.90;;;;;;5073157;28;20211;-79
2023/05/24 09:00:14;;;;;;;6.60;4.50;;;16.70;99.90;;;;;;5072406;28;20599;-75
2023/05/24 09:02:45;;;;;;;7.93;5.10;;;16.90;99.90;;;;;;5072244;28;20261;-78
2023/05/24 09:05:15;;;;;;;7.07;4.90;;;17.10;99.90;;;;;;5072705;28;20215;-78
2023/05/24 09:07:46;;;;;;;7.93;6.10;;;17.30;99.90;;;;;;5072618;28;20214;-75
2023/05/24 09:10:14;;;;;;;8.13;6.40;;;17.10;99.90;;;;;;5072540;28;20221;-78
2023/05/24 09:12:47;;;;;;;10.60;6.43;;;16.60;99.90;;;;;;5073308;28;20262;-76
2023/05/24 09:15:15;;;;;;;10.63;5.67;;;16.50;99.90;;;;;;5072896;28;20380;-77
2023/05/24 09:17:45;;;;;;;9.00;6.13;;;16.50;99.90;;;;;;5072380;28;20207;-76
2023/05/24 09:20:13;;;;;;;8.53;5.80;;;16.50;99.90;;;;;;5071722;28;20212;-76
2023/05/24 09:22:43;;;;;;;9.20;5.90;;;16.20;99.90;;;;;;5071758;28;20302;-78
2023/05/24 09:25:14;;;;;;;8.23;5.70;;;15.90;99.90;;;;;;5071919;28;20242;-78
2023/05/24 09:27:43;;;;;;;10.60;5.87;;;16.00;99.90;;;;;;5071695;28;20287;-78
2023/05/24 09:30:15;;;;;;;8.63;5.40;;;15.90;99.90;;;;;;5072573;28;20370;-77
2023/05/24 09:32:55;;;;;;;8.10;4.90;;;16.00;99.90;;;;;;5071511;28;20208;-77
2023/05/24 09:35:25;;;;;;;7.60;5.13;;;16.00;99.90;;;;;;5071017;28;20309;-77
2023/05/24 09:37:58;;;;;;;9.43;5.07;;;15.80;99.90;;;;;;5081619;28;20205;-76
2023/05/24 09:40:28;;;;;;;7.70;4.90;;;15.90;99.90;;;;;;5091872;28;20195;-77
2023/05/24 09:43:07;;;;;;;11.53;5.13;;;15.90;99.90;;;;;;5091751;28;20688;-80
2023/05/24 09:45:41;;;;;;;9.57;5.20;;;16.00;99.90;;;;;;5092155;28;20211;-78
2023/05/24 09:48:14;;;;;;;9.47;5.40;;;16.00;99.90;;;;;;5092156;28;20238;-77
2023/05/24 09:50:44;;;;;;;7.60;4.77;;;15.90;99.90;;;;;;5092552;28;20214;-80
2023/05/24 09:53:13;;;;;;;9.60;5.27;;;15.70;99.90;;;;;;5092084;28;20231;-78
2023/05/24 09:55:41;;;;;;;8.80;5.37;;;15.60;99.90;;;;;;5091663;28;20551;-79
2023/05/24 09:58:11;;;;;;;7.90;5.10;;;15.40;99.90;;;;;;5072825;28;20203;-77
2023/05/24 10:00:41;;;;;;;9.37;5.27;;;15.40;99.90;;;;;;5072035;28;20238;-79
2023/05/24 10:03:13;;;;;;;8.97;4.77;;;15.60;99.90;;;;;;5071552;28;20242;-78
2023/05/24 10:05:44;;;;;;;9.00;5.03;;;15.60;99.90;;;;;;5080004;28;20211;-77
2023/05/24 10:08:13;;;;;;;11.00;4.93;;;15.40;99.90;;;;;;5092011;28;20230;-79
2023/05/24 10:10:42;;;;;;;9.07;4.67;;;15.70;99.90;;;;;;5092079;28;20218;-77
2023/05/24 10:13:14;;;;;;;9.07;4.50;;;16.10;99.90;;;;;;5091684;28;20207;-77
2023/05/24 10:15:43;;;;;;;8.70;4.70;;;16.50;99.90;;;;;;5078894;28;20616;-78
2023/05/24 10:18:13;;;;;;;10.13;5.17;;;16.70;99.90;;;;;;5071991;28;20203;-78
2023/05/24 10:20:42;;;;;;;10.27;4.50;;;16.70;99.90;;;;;;5071491;28;20619;-77
2023/05/24 10:23:16;;;;;;;7.77;4.70;;;16.50;99.90;;;;;;5071556;28;20215;-78
2023/05/24 10:25:49;;;;;;;8.70;4.50;;;16.30;99.90;;;;;;5071585;28;20290;-77
2023/05/24 10:28:20;;;;;;;9.83;5.23;;;16.30;99.90;;;;;;5071744;28;20211;-78
2023/05/24 10:30:58;;;;;;;7.33;4.40;;;16.10;99.90;;;;;;5071767;28;20207;-78
2023/05/24 10:33:29;;;;;;;9.10;5.00;;;16.00;99.90;;;;;;5089037;28;20660;-79
2023/05/24 10:35:58;;;;;;;9.93;4.47;;;15.70;99.90;;;;;;5091407;28;20222;-77
2023/05/24 10:38:26;;;;;;;6.83;4.63;;;15.40;99.90;;;;;;5091455;28;20205;-77
2023/05/24 10:40:54;;;;;;;10.50;4.83;;;15.30;99.90;;;;;;5091692;28;20268;-77
2023/05/24 10:43:22;;;;;;;8.50;5.10;;;15.20;99.90;;;;;;5071991;28;20215;-78
2023/05/24 10:45:51;;;;;;;8.67;5.03;;;15.00;99.90;;;;;;5071598;28;20214;-77
2023/05/24 10:48:37;;;;;;;8.20;4.97;;;15.20;99.90;;;;;;5071072;28;20697;-79
2023/05/24 10:51:35;;;;;;;8.33;5.17;;;15.00;99.90;;;;;;5070956;28;20294;-77
2023/05/24 10:54:17;;;;;;;9.13;5.00;;;15.20;99.90;;;;;;5075001;28;20214;-77
2023/05/24 10:56:46;;;;;;;8.80;4.63;;;15.20;99.90;;;;;;5075203;28;20258;-78
2023/05/24 10:59:29;;;;;;;10.27;4.70;;;15.30;99.90;;;;;;5074938;28;20235;-77
2023/05/24 11:01:59;;;;;;;8.53;5.07;;;15.30;99.90;;;;;;5074733;28;20548;-77
2023/05/24 11:04:33;;;;;;;11.03;4.60;;;15.50;99.90;;;;;;5075202;28;20290;-80
2023/05/24 11:07:04;;;;;;;9.97;4.83;;;15.40;99.90;;;;;;5075078;28;20550;-79
2023/05/24 11:09:33;;;;;;;9.70;5.00;;;15.50;99.90;;;;;;5074636;28;20280;-79
2023/05/24 11:12:06;;;;;;;11.90;5.33;;;15.50;99.90;;;;;;5074259;28;20302;-76
2023/05/24 11:14:38;;;;;;;10.33;4.87;;;15.50;99.90;;;;;;5074618;28;20243;-78
2023/05/24 11:17:07;;;;;;;8.90;4.83;;;15.50;99.90;;;;;;5074656;28;20290;-79
2023/05/24 11:19:38;;;;;;;10.83;4.60;;;15.60;99.90;;;;;;5074640;28;20269;-77
2023/05/24 11:22:08;;;;;;;9.73;4.80;;;15.90;99.90;;;;;;5074164;28;20265;-77
2023/05/24 11:24:37;;;;;;;11.53;5.00;;;16.10;99.90;;;;;;5090812;28;20205;-78
2023/05/24 11:27:05;;;;;;;8.67;4.80;;;16.00;99.90;;;;;;5093773;28;20745;-80
2023/05/24 11:29:41;;;;;;;8.67;4.90;;;16.30;99.90;;;;;;5094444;28;20718;-76
2023/05/24 11:32:09;;;;;;;12.50;4.80;;;16.00;99.90;;;;;;5091399;28;20202;-77
2023/05/24 11:34:39;;;;;;;13.30;5.00;;;16.10;99.90;;;;;;5094025;28;20226;-78
2023/05/24 11:37:08;;;;;;;10.70;5.37;;;16.30;99.90;;;;;;5091790;28;20231;-77
2023/05/24 11:39:37;;;;;;;11.87;5.30;;;16.10;99.90;;;;;;5091900;28;20202;-77
2023/05/24 11:42:07;;;;;;;9.27;4.90;;;16.10;99.90;;;;;;5093839;28;20210;-77
2023/05/24 11:44:37;;;;;;;11.67;5.80;;;15.90;99.90;;;;;;5094301;28;20239;-78
2023/05/24 11:47:07;;;;;;;8.63;5.07;;;15.60;99.90;;;;;;5092115;28;20306;-78
2023/05/24 11:49:36;;;;;;;10.73;4.83;;;15.30;99.90;;;;;;5091867;28;20215;-78
2023/05/24 11:52:06;;;;;;;12.97;5.93;;;15.20;99.90;;;;;;5093560;28;20199;-78
2023/05/24 11:54:36;;;;;;;10.60;5.60;;;15.20;99.90;;;;;;5093924;28;20285;-77
2023/05/24 11:57:05;;;;;;;10.17;5.57;;;15.40;99.90;;;;;;5092107;28;20653;-78
2023/05/24 11:59:36;;;;;;;14.33;5.77;;;15.50;99.90;;;;;;5091150;28;20648;-75
2023/05/24 12:02:06;;;;;;;11.23;5.53;;;15.50;99.90;;;;;;5090849;28;20298;-78
2023/05/24 12:04:35;;;;;;;8.87;5.63;;;15.70;99.90;;;;;;5093058;28;20207;-78
2023/05/24 12:07:10;;;;;;;7.50;4.80;;;15.80;99.90;;;;;;5090041;28;20204;-78
2023/05/24 12:09:38;;;;;;;9.10;5.43;;;16.10;99.90;;;;;;5093623;28;20211;-79
2023/05/24 12:12:07;;;;;;;9.17;5.13;;;16.60;99.90;;;;;;5092886;28;20737;-77
2023/05/24 12:14:36;;;;;;;9.67;4.87;;;16.40;99.90;;;;;;5080265;28;20560;-76
2023/05/24 12:17:04;;;;;;;7.67;4.90;;;16.90;99.90;;;;;;5072911;28;20225;-78
2023/05/24 12:19:34;;;;;;;9.93;4.90;;;17.70;99.90;;;;;;5082671;28;20234;-75
2023/05/24 12:22:06;;;;;;;8.17;4.83;;;18.20;99.90;;;;;;5087619;28;20210;-78
2023/05/24 12:24:37;;;;;;;8.23;4.87;;;18.40;99.90;;;;;;5093327;28;20214;-77
2023/05/24 12:27:07;;;;;;;9.47;4.63;;;18.40;99.90;;;;;;5093162;28;20217;-77
2023/05/24 12:29:37;;;;;;;13.30;4.90;;;18.10;99.90;;;;;;5093329;28;20663;-78
2023/05/24 12:32:10;;;;;;;10.50;4.90;;;17.90;99.90;;;;;;5080655;28;20211;-78
2023/05/24 12:34:41;;;;;;;13.20;4.63;;;17.20;99.90;;;;;;5073381;28;20564;-77
2023/05/24 12:37:12;;;;;;;11.73;5.10;;;16.90;99.90;;;;;;5088940;28;20305;-78
2023/05/24 12:39:41;;;;;;;11.97;4.57;;;16.50;99.90;;;;;;5090335;28;21155;-76
2023/05/24 12:42:12;;;;;;;9.43;4.70;;;16.90;99.90;;;;;;5072479;28;20302;-76
2023/05/24 12:44:40;;;;;;;7.97;4.37;;;17.00;99.90;;;;;;5072807;28;20216;-77
2023/05/24 12:47:09;;;;;;;8.83;4.43;;;17.10;99.90;;;;;;5072990;28;20208;-76
2023/05/24 12:49:37;;;;;;;7.30;4.47;;;17.00;99.90;;;;;;5090798;28;20280;-77
2023/05/24 12:52:06;;;;;;;8.30;4.43;;;16.90;99.90;;;;;;5092630;28;20207;-75
2023/05/24 12:54:35;;;;;;;8.10;4.80;;;16.90;99.90;;;;;;5092210;28;20210;-78
2023/05/24 12:57:04;;;;;;;8.67;4.60;;;16.80;99.90;;;;;;5083680;28;20223;-79
2023/05/24 12:59:33;;;;;;;7.07;4.10;;;16.80;99.90;;;;;;5072708;28;20306;-77